Time;durP1;ratioP1;P1;durP2;ratioP2;P2;SDS_P1;SDS_P2;PMS_P1;PMS_P2;Temp;Humidity;BMP_temperature;BMP_pressure;BME280_temperature;BME280_humidity;BME280_pressure;Samples;Min_cycle;Max_cycle;Signal;HPM_P1;HPM_P2
2021/08/18 00:00:56;;;;;;;13.43;5.68;;;12.70;84.00;;;;;;2050017;28;20273;-65
2021/08/18 00:01:58;;;;;;;10.63;5.17;;;12.70;84.20;;;;;;2049232;28;20180;-66
2021/08/18 00:03:01;;;;;;;8.70;4.88;;;12.70;84.60;;;;;;2049070;28;20675;-66
2021/08/18 00:04:03;;;;;;;8.73;4.53;;;12.70;84.80;;;;;;2049198;28;20199;-65
2021/08/18 00:05:07;;;;;;;11.13;5.15;;;12.70;84.90;;;;;;2049068;28;20180;-66
2021/08/18 00:06:09;;;;;;;9.55;5.43;;;12.70;85.00;;;;;;2048898;28;20179;-65
2021/08/18 00:07:09;;;;;;;8.60;4.35;;;12.70;85.00;;;;;;2049027;28;20663;-67
2021/08/18 00:08:12;;;;;;;8.80;4.53;;;12.70;84.10;;;;;;2048917;28;20272;-66
2021/08/18 00:09:13;;;;;;;12.20;5.43;;;12.70;83.90;;;;;;2048341;29;20227;-65
2021/08/18 00:10:14;;;;;;;8.88;4.63;;;12.60;84.10;;;;;;2048399;29;20175;-66
2021/08/18 00:11:15;;;;;;;7.75;5.13;;;12.60;84.90;;;;;;2048963;28;20261;-64
2021/08/18 00:12:16;;;;;;;9.07;4.77;;;12.60;84.60;;;;;;2048752;28;20184;-65
2021/08/18 00:13:22;;;;;;;7.93;3.97;;;12.60;84.90;;;;;;2048215;28;20267;-67
2021/08/18 00:14:23;;;;;;;8.77;4.18;;;12.60;84.60;;;;;;2048256;29;20192;-66
2021/08/18 00:15:26;;;;;;;7.27;4.30;;;12.60;84.00;;;;;;2048251;29;20611;-65
2021/08/18 00:16:27;;;;;;;10.75;5.00;;;12.60;84.30;;;;;;2048700;28;20227;-65
2021/08/18 00:17:28;;;;;;;9.02;5.75;;;12.70;84.50;;;;;;2047985;29;20559;-66
2021/08/18 00:18:29;;;;;;;12.00;5.37;;;12.70;84.00;;;;;;2048135;29;20315;-65
2021/08/18 00:19:29;;;;;;;7.80;4.37;;;12.70;83.50;;;;;;2048787;28;20624;-66
2021/08/18 00:20:32;;;;;;;11.53;5.67;;;12.70;82.90;;;;;;2048749;28;20180;-65
2021/08/18 00:21:33;;;;;;;12.45;4.90;;;12.80;83.00;;;;;;2048773;28;20239;-65
2021/08/18 00:22:34;;;;;;;8.30;4.83;;;12.70;83.00;;;;;;2048683;28;20268;-66
2021/08/18 00:23:35;;;;;;;9.73;5.43;;;12.70;83.00;;;;;;2048706;28;20180;-66
2021/08/18 00:24:36;;;;;;;9.60;5.10;;;12.80;83.20;;;;;;2048812;28;20183;-66
2021/08/18 00:25:36;;;;;;;9.43;5.63;;;12.70;83.40;;;;;;2048816;28;20234;-65
2021/08/18 00:26:37;;;;;;;9.57;5.33;;;12.70;83.40;;;;;;2050046;28;20176;-69
2021/08/18 00:27:38;;;;;;;12.00;5.37;;;12.70;83.30;;;;;;2049763;28;20192;-67
2021/08/18 00:28:39;;;;;;;10.20;4.67;;;12.80;83.30;;;;;;2048585;28;20250;-64
2021/08/18 00:29:40;;;;;;;9.80;5.53;;;12.80;83.40;;;;;;2048740;28;20184;-66
2021/08/18 00:30:41;;;;;;;9.55;5.10;;;12.90;82.60;;;;;;2048596;28;20611;-66
2021/08/18 00:31:42;;;;;;;9.03;5.33;;;12.90;82.40;;;;;;2048655;28;20203;-67
2021/08/18 00:32:43;;;;;;;10.73;5.37;;;12.90;82.30;;;;;;2048045;28;20223;-66
2021/08/18 00:33:44;;;;;;;6.63;5.03;;;12.90;82.00;;;;;;2048172;29;20734;-67
2021/08/18 00:34:45;;;;;;;10.55;4.90;;;12.90;82.00;;;;;;2048616;28;20266;-66
2021/08/18 00:35:45;;;;;;;7.80;4.97;;;12.90;82.40;;;;;;2048731;29;20176;-65
2021/08/18 00:36:46;;;;;;;8.23;5.80;;;12.90;82.30;;;;;;2048819;28;20176;-66
2021/08/18 00:37:47;;;;;;;11.48;5.88;;;12.90;82.10;;;;;;2048565;28;20175;-65
2021/08/18 00:38:48;;;;;;;7.37;4.60;;;12.90;82.10;;;;;;2050216;28;20180;-66
2021/08/18 00:39:49;;;;;;;7.43;4.63;;;12.90;82.50;;;;;;2050269;28;20183;-66
2021/08/18 00:40:49;;;;;;;10.87;4.80;;;12.90;82.30;;;;;;2050073;28;20258;-66
2021/08/18 00:41:50;;;;;;;9.27;4.13;;;12.90;82.20;;;;;;2050030;28;20311;-65
2021/08/18 00:42:51;;;;;;;9.33;5.10;;;12.90;82.30;;;;;;2049357;28;20770;-65
2021/08/18 00:43:52;;;;;;;7.25;4.57;;;13.00;82.50;;;;;;2049498;28;20183;-66
2021/08/18 00:44:54;;;;;;;13.50;5.77;;;13.00;82.70;;;;;;2050013;28;20203;-65
2021/08/18 00:45:55;;;;;;;7.47;4.53;;;13.00;82.90;;;;;;2049417;29;20718;-66
2021/08/18 00:46:58;;;;;;;9.27;4.53;;;13.00;82.20;;;;;;2049365;29;20183;-65
2021/08/18 00:47:59;;;;;;;10.98;5.38;;;13.00;83.40;;;;;;2050168;28;20263;-66
2021/08/18 00:49:00;;;;;;;8.73;5.20;;;13.00;82.40;;;;;;2050065;28;20221;-67
2021/08/18 00:50:00;;;;;;;11.77;5.67;;;13.00;82.40;;;;;;2049996;28;20178;-65
2021/08/18 00:51:01;;;;;;;11.60;5.50;;;13.00;82.00;;;;;;2049869;28;20195;-65
2021/08/18 00:52:03;;;;;;;11.13;4.40;;;13.10;81.60;;;;;;2049855;28;20168;-66
2021/08/18 00:53:04;;;;;;;9.32;5.25;;;13.10;81.60;;;;;;2049954;28;20476;-66
2021/08/18 00:54:05;;;;;;;10.70;4.80;;;13.10;81.60;;;;;;2049233;29;20172;-65
2021/08/18 00:55:12;;;;;;;8.00;4.13;;;13.10;81.60;;;;;;2049384;29;20176;-66
2021/08/18 00:56:13;;;;;;;7.55;4.82;;;13.10;81.50;;;;;;2050004;28;20172;-66
2021/08/18 00:57:14;;;;;;;11.93;5.83;;;13.10;80.50;;;;;;2049860;28;20171;-66
2021/08/18 00:58:14;;;;;;;9.00;5.10;;;13.00;80.30;;;;;;2049372;29;20176;-65
2021/08/18 00:59:16;;;;;;;9.00;5.80;;;13.00;80.50;;;;;;2049347;29;20818;-65
2021/08/18 01:00:19;;;;;;;9.00;5.70;;;13.00;80.50;;;;;;2049918;28;20198;-66
2021/08/18 01:01:20;;;;;;;6.20;3.60;;;12.90;80.50;;;;;;2049417;29;20587;-66
2021/08/18 01:02:22;;;;;;;9.90;5.15;;;13.00;80.10;;;;;;2041399;29;20188;-67
2021/08/18 01:03:23;;;;;;;10.63;4.97;;;12.90;80.40;;;;;;2041694;29;20197;-66
2021/08/18 01:04:24;;;;;;;6.72;4.70;;;12.80;80.50;;;;;;2049204;29;20183;-66
2021/08/18 01:05:29;;;;;;;10.13;5.43;;;12.80;81.10;;;;;;2050006;28;20234;-65
2021/08/18 01:06:29;;;;;;;8.13;4.60;;;12.80;80.60;;;;;;2049178;29;20192;-66
2021/08/18 01:07:30;;;;;;;8.97;3.73;;;12.80;80.10;;;;;;2049248;29;20203;-67
2021/08/18 01:08:31;;;;;;;8.10;4.67;;;12.80;80.30;;;;;;2049850;28;20709;-68
2021/08/18 01:09:31;;;;;;;9.23;5.03;;;12.80;80.40;;;;;;2049833;28;20187;-64
2021/08/18 01:10:35;;;;;;;8.40;5.00;;;12.90;80.50;;;;;;2049983;28;20231;-66
2021/08/18 01:11:41;;;;;;;12.23;4.40;;;12.90;79.90;;;;;;2049841;28;20211;-66
2021/08/18 01:12:41;;;;;;;13.52;5.78;;;12.90;79.70;;;;;;2049828;28;20200;-66
2021/08/18 01:13:44;;;;;;;6.40;4.43;;;12.90;80.00;;;;;;2050017;28;20261;-66
2021/08/18 01:14:45;;;;;;;8.88;4.32;;;12.80;79.70;;;;;;2049811;28;20188;-67
2021/08/18 01:15:46;;;;;;;9.40;5.10;;;12.80;79.70;;;;;;2049786;28;20631;-66
2021/08/18 01:16:48;;;;;;;7.37;4.30;;;12.70;80.40;;;;;;2049935;28;20176;-65
2021/08/18 01:17:52;;;;;;;7.68;4.78;;;12.80;80.30;;;;;;2049898;28;20168;-66
2021/08/18 01:18:53;;;;;;;7.90;4.38;;;12.70;80.70;;;;;;2049716;28;20176;-66
2021/08/18 01:19:54;;;;;;;10.33;5.07;;;12.70;80.80;;;;;;2049218;29;20735;-66
2021/08/18 01:20:54;;;;;;;8.00;4.70;;;12.70;80.60;;;;;;2049151;29;20215;-65
2021/08/18 01:21:55;;;;;;;9.40;5.07;;;12.80;80.40;;;;;;2049952;28;20212;-66
2021/08/18 01:22:59;;;;;;;11.97;5.17;;;12.80;80.60;;;;;;2049665;28;20202;-66
2021/08/18 01:24:04;;;;;;;15.68;5.53;;;12.80;80.60;;;;;;2049761;28;20199;-66
2021/08/18 01:25:07;;;;;;;8.45;5.68;;;12.90;80.30;;;;;;2049863;28;20192;-65
2021/08/18 01:26:07;;;;;;;7.32;4.32;;;12.90;80.00;;;;;;2049754;28;20185;-65
2021/08/18 01:27:08;;;;;;;14.47;5.27;;;12.90;80.00;;;;;;2049699;28;20180;-64
2021/08/18 01:28:11;;;;;;;9.53;5.10;;;12.90;79.90;;;;;;2049898;28;20552;-65
2021/08/18 01:29:12;;;;;;;9.55;4.05;;;12.90;79.80;;;;;;2049725;28;20183;-65
2021/08/18 01:30:15;;;;;;;10.38;5.35;;;12.90;79.40;;;;;;2049679;28;20556;-65
2021/08/18 01:31:16;;;;;;;10.73;5.55;;;12.80;80.00;;;;;;2049713;28;20207;-65
2021/08/18 01:32:17;;;;;;;7.63;4.60;;;12.80;80.10;;;;;;2049645;28;20184;-64
2021/08/18 01:33:17;;;;;;;15.40;5.43;;;12.80;80.50;;;;;;2049742;28;20196;-64
2021/08/18 01:34:18;;;;;;;11.90;4.83;;;12.70;81.40;;;;;;2049732;28;20187;-66
2021/08/18 01:35:28;;;;;;;9.43;4.40;;;12.60;81.60;;;;;;2049814;28;20175;-64
2021/08/18 01:36:31;;;;;;;17.58;4.55;;;12.60;81.60;;;;;;2049788;28;20175;-65
2021/08/18 01:37:32;;;;;;;8.88;5.22;;;12.70;81.10;;;;;;2049591;28;20250;-65
2021/08/18 01:38:32;;;;;;;12.93;4.53;;;12.80;81.10;;;;;;2049710;28;20259;-67
2021/08/18 01:39:33;;;;;;;9.10;4.67;;;12.80;81.50;;;;;;2049806;28;20176;-65
2021/08/18 01:40:34;;;;;;;7.37;4.80;;;12.80;80.50;;;;;;2049709;28;20187;-64
2021/08/18 01:41:35;;;;;;;9.38;5.65;;;12.80;80.50;;;;;;2048989;29;20187;-65
2021/08/18 01:42:39;;;;;;;11.63;4.95;;;12.80;80.60;;;;;;2041346;29;20175;-67
2021/08/18 01:43:39;;;;;;;11.50;5.38;;;12.90;80.60;;;;;;2049054;29;20205;-65
2021/08/18 01:44:40;;;;;;;8.97;3.90;;;12.90;80.60;;;;;;2049109;28;20195;-67
2021/08/18 01:45:44;;;;;;;9.13;4.97;;;12.90;80.30;;;;;;2049128;29;20198;-65
2021/08/18 01:46:44;;;;;;;8.02;4.93;;;12.90;81.10;;;;;;2049830;28;20179;-66
2021/08/18 01:47:45;;;;;;;8.00;4.57;;;12.90;80.60;;;;;;2048970;29;20188;-64
2021/08/18 01:48:46;;;;;;;9.87;5.27;;;12.90;80.60;;;;;;2049179;29;20191;-65
2021/08/18 01:49:46;;;;;;;8.07;4.43;;;12.90;80.90;;;;;;2048979;28;20915;-66
2021/08/18 01:50:51;;;;;;;10.37;5.53;;;12.90;80.60;;;;;;2049808;28;20188;-65
2021/08/18 01:51:51;;;;;;;9.35;4.85;;;12.90;80.80;;;;;;2049468;28;20211;-65
2021/08/18 01:52:54;;;;;;;9.90;4.73;;;12.90;82.00;;;;;;2049783;28;20235;-64
2021/08/18 01:53:55;;;;;;;7.88;4.38;;;12.90;82.30;;;;;;2049535;28;20191;-66
2021/08/18 01:54:55;;;;;;;8.43;4.67;;;12.90;82.50;;;;;;2049692;28;20551;-66
2021/08/18 01:56:06;;;;;;;8.43;5.33;;;12.90;82.00;;;;;;2048963;28;20199;-65
2021/08/18 01:57:07;;;;;;;9.25;5.10;;;12.90;80.30;;;;;;2049075;28;20179;-65
2021/08/18 01:58:08;;;;;;;9.10;5.17;;;12.80;80.40;;;;;;2049481;28;20551;-65
2021/08/18 01:59:09;;;;;;;8.50;4.57;;;12.80;81.00;;;;;;2049004;28;20243;-67
2021/08/18 02:00:12;;;;;;;10.75;4.63;;;12.90;81.10;;;;;;2048897;29;20184;-65
2021/08/18 02:01:15;;;;;;;11.90;5.20;;;12.90;80.90;;;;;;2049703;28;20559;-66
2021/08/18 02:02:15;;;;;;;9.00;4.65;;;12.90;80.00;;;;;;2049266;28;20200;-64
2021/08/18 02:03:16;;;;;;;8.10;5.00;;;12.90;79.70;;;;;;2049506;28;20216;-63
2021/08/18 02:04:17;;;;;;;8.23;4.73;;;12.90;79.80;;;;;;2049377;28;20235;-66
2021/08/18 02:05:17;;;;;;;8.43;5.00;;;12.80;79.80;;;;;;2049544;28;20541;-64
2021/08/18 02:06:18;;;;;;;7.30;4.77;;;12.90;80.00;;;;;;2049572;28;20328;-63
2021/08/18 02:07:19;;;;;;;9.88;5.10;;;12.80;80.20;;;;;;2048730;29;20179;-64
2021/08/18 02:08:20;;;;;;;10.20;5.90;;;12.80;80.60;;;;;;2040746;29;20185;-67
2021/08/18 02:09:21;;;;;;;7.30;4.97;;;12.80;80.30;;;;;;2048688;29;20188;-66
2021/08/18 02:10:22;;;;;;;10.97;5.43;;;12.80;80.20;;;;;;2049320;28;20647;-64
2021/08/18 02:11:23;;;;;;;8.63;3.92;;;12.80;80.10;;;;;;2049333;28;20849;-68
2021/08/18 02:12:23;;;;;;;12.67;4.97;;;12.80;80.50;;;;;;2049267;28;20180;-64
2021/08/18 02:13:24;;;;;;;9.97;4.33;;;12.80;80.60;;;;;;2049436;28;20179;-64
2021/08/18 02:14:25;;;;;;;9.80;5.53;;;12.80;80.80;;;;;;2049442;28;20184;-64
2021/08/18 02:15:30;;;;;;;9.20;5.03;;;12.80;81.00;;;;;;2049337;29;20180;-65
2021/08/18 02:16:30;;;;;;;9.63;6.05;;;12.90;80.60;;;;;;2049306;28;20263;-64
2021/08/18 02:17:31;;;;;;;6.53;4.40;;;12.90;80.30;;;;;;2049203;28;20239;-69
2021/08/18 02:18:32;;;;;;;11.23;4.63;;;12.90;80.10;;;;;;2049372;28;20186;-65
2021/08/18 02:19:33;;;;;;;9.45;4.40;;;12.90;80.00;;;;;;2049293;28;20712;-66
2021/08/18 02:20:37;;;;;;;7.27;3.47;;;12.90;79.60;;;;;;2049293;28;20192;-65
2021/08/18 02:21:37;;;;;;;6.70;4.50;;;12.90;79.60;;;;;;2049344;28;20191;-66
2021/08/18 02:22:38;;;;;;;10.90;5.63;;;12.80;80.10;;;;;;2048590;28;20697;-65
2021/08/18 02:23:39;;;;;;;9.57;4.40;;;12.80;80.20;;;;;;2048647;29;20183;-65
2021/08/18 02:24:40;;;;;;;8.83;4.73;;;12.70;80.80;;;;;;2049490;28;20871;-65
2021/08/18 02:25:41;;;;;;;9.57;4.33;;;12.60;81.20;;;;;;2049183;28;20199;-64
2021/08/18 02:26:42;;;;;;;6.35;4.38;;;12.60;81.00;;;;;;2049188;28;20190;-67
2021/08/18 02:27:43;;;;;;;8.33;4.90;;;12.60;81.70;;;;;;2051657;28;20565;-67
2021/08/18 02:28:44;;;;;;;11.02;5.43;;;12.60;82.20;;;;;;2049308;28;20263;-65
2021/08/18 02:29:44;;;;;;;7.30;4.47;;;12.50;82.00;;;;;;2049194;28;20183;-66
2021/08/18 02:30:45;;;;;;;10.77;5.83;;;12.50;81.90;;;;;;2049207;28;20274;-66
2021/08/18 02:31:46;;;;;;;9.03;4.67;;;12.40;82.00;;;;;;2048610;29;20235;-63
2021/08/18 02:32:47;;;;;;;9.30;5.00;;;12.40;82.40;;;;;;2048517;28;20207;-66
2021/08/18 02:33:48;;;;;;;10.50;4.97;;;12.40;82.10;;;;;;2048513;29;20679;-64
2021/08/18 02:34:49;;;;;;;12.50;5.03;;;12.40;82.20;;;;;;2048889;29;20254;-65
2021/08/18 02:35:50;;;;;;;7.73;3.63;;;12.50;82.60;;;;;;2049369;28;20194;-66
2021/08/18 02:36:50;;;;;;;8.93;5.13;;;12.50;82.40;;;;;;2049148;28;20799;-65
2021/08/18 02:37:54;;;;;;;8.97;4.17;;;12.40;82.50;;;;;;2049163;28;20180;-65
2021/08/18 02:38:54;;;;;;;10.30;4.28;;;12.40;82.80;;;;;;2046504;28;20180;-65
2021/08/18 02:39:55;;;;;;;9.23;5.23;;;12.40;82.50;;;;;;2048594;29;20174;-65
2021/08/18 02:40:56;;;;;;;7.77;4.27;;;12.40;82.50;;;;;;2048986;28;20176;-67
2021/08/18 02:41:57;;;;;;;9.83;5.13;;;12.40;82.40;;;;;;2048528;29;20576;-66
2021/08/18 02:42:59;;;;;;;8.90;4.93;;;12.40;82.30;;;;;;2048447;29;20253;-64
2021/08/18 02:44:00;;;;;;;7.65;4.97;;;12.40;82.10;;;;;;2056402;28;20179;-66
2021/08/18 02:45:01;;;;;;;12.37;5.07;;;12.50;82.10;;;;;;2056445;28;20211;-65
2021/08/18 02:46:02;;;;;;;7.22;4.28;;;12.50;82.20;;;;;;2049179;28;20274;-66
2021/08/18 02:47:03;;;;;;;9.97;4.73;;;12.50;82.40;;;;;;2048958;28;20178;-66
2021/08/18 02:48:04;;;;;;;7.97;4.90;;;12.50;82.60;;;;;;2049145;28;20180;-65
2021/08/18 02:49:05;;;;;;;9.07;5.53;;;12.50;82.60;;;;;;2049098;29;20213;-65
2021/08/18 02:50:07;;;;;;;10.50;4.97;;;12.50;82.60;;;;;;2049244;28;20179;-65
2021/08/18 02:51:08;;;;;;;7.47;4.43;;;12.50;82.20;;;;;;2049161;28;20297;-66
2021/08/18 02:52:09;;;;;;;9.53;4.60;;;12.50;82.60;;;;;;2049133;28;20176;-65
2021/08/18 02:53:10;;;;;;;14.05;5.53;;;12.50;82.80;;;;;;2049119;28;20203;-65
2021/08/18 02:54:11;;;;;;;8.47;5.00;;;12.60;82.70;;;;;;2049057;28;20187;-65
2021/08/18 02:55:12;;;;;;;9.95;5.35;;;12.60;82.70;;;;;;2048987;28;20188;-66
2021/08/18 02:56:12;;;;;;;8.85;4.07;;;12.60;82.30;;;;;;2049015;28;20617;-65
2021/08/18 02:57:13;;;;;;;8.83;5.10;;;12.70;81.80;;;;;;2048907;29;20188;-65
2021/08/18 02:58:14;;;;;;;6.63;4.37;;;12.70;81.90;;;;;;2049077;28;20643;-64
2021/08/18 02:59:15;;;;;;;9.87;4.10;;;12.70;81.60;;;;;;2048931;29;20271;-65
2021/08/18 03:00:16;;;;;;;5.70;4.03;;;12.70;81.40;;;;;;2049111;28;20215;-65
2021/08/18 03:01:17;;;;;;;10.70;5.32;;;12.80;81.00;;;;;;2048539;28;20195;-66
2021/08/18 03:02:21;;;;;;;12.50;5.97;;;12.80;80.80;;;;;;2048713;28;20187;-65
2021/08/18 03:03:22;;;;;;;10.43;4.40;;;12.80;80.80;;;;;;2049097;28;20600;-66
2021/08/18 03:04:22;;;;;;;7.30;4.60;;;12.80;80.90;;;;;;2048890;28;20206;-65
2021/08/18 03:05:23;;;;;;;10.37;5.83;;;12.70;80.50;;;;;;2049059;28;20191;-66
2021/08/18 03:06:24;;;;;;;9.37;5.13;;;12.70;80.50;;;;;;2049066;29;20609;-65
2021/08/18 03:07:25;;;;;;;7.47;4.70;;;12.70;80.70;;;;;;2048819;28;20184;-65
2021/08/18 03:08:25;;;;;;;13.17;4.93;;;12.70;81.20;;;;;;2048965;28;20175;-65
2021/08/18 03:09:26;;;;;;;7.17;4.80;;;12.60;80.80;;;;;;2049222;28;20180;-65
2021/08/18 03:10:27;;;;;;;7.00;4.70;;;12.60;81.00;;;;;;2048984;28;20282;-67
2021/08/18 03:11:27;;;;;;;9.03;4.97;;;12.60;81.00;;;;;;2048942;28;20221;-66
2021/08/18 03:12:28;;;;;;;9.03;5.27;;;12.60;81.00;;;;;;2048924;28;20183;-65
2021/08/18 03:13:29;;;;;;;7.47;4.20;;;12.70;81.10;;;;;;2049038;29;20215;-66
2021/08/18 03:14:30;;;;;;;8.95;5.20;;;12.70;81.80;;;;;;2048987;28;20184;-65
2021/08/18 03:15:31;;;;;;;12.57;5.40;;;12.60;81.80;;;;;;2049066;29;20243;-65
2021/08/18 03:16:32;;;;;;;15.30;5.13;;;12.60;81.90;;;;;;2048430;29;20274;-66
2021/08/18 03:17:33;;;;;;;10.37;5.70;;;12.70;81.90;;;;;;2040358;29;20263;-66
2021/08/18 03:18:34;;;;;;;9.43;5.00;;;12.70;82.00;;;;;;2048367;29;20190;-65
2021/08/18 03:19:35;;;;;;;10.27;5.20;;;12.70;81.40;;;;;;2048970;28;20207;-65
2021/08/18 03:20:35;;;;;;;6.87;4.17;;;12.70;81.50;;;;;;2048974;28;20274;-65
2021/08/18 03:21:37;;;;;;;9.57;5.30;;;12.60;81.40;;;;;;2049010;28;20255;-65
2021/08/18 03:22:37;;;;;;;10.40;5.22;;;12.40;82.60;;;;;;2048723;28;20183;-66
2021/08/18 03:23:38;;;;;;;9.53;5.07;;;12.30;82.80;;;;;;2048398;29;20246;-65
2021/08/18 03:24:39;;;;;;;9.40;4.97;;;12.20;82.90;;;;;;2048176;28;20179;-64
2021/08/18 03:25:40;;;;;;;10.15;4.32;;;12.20;83.00;;;;;;2048865;28;20226;-66
2021/08/18 03:26:41;;;;;;;14.27;5.80;;;12.20;83.00;;;;;;2056270;28;20190;-65
2021/08/18 03:27:41;;;;;;;13.70;4.88;;;12.20;83.10;;;;;;2056118;28;20269;-67
2021/08/18 03:28:42;;;;;;;8.00;4.57;;;12.30;82.80;;;;;;2048856;28;20187;-65
2021/08/18 03:29:43;;;;;;;10.20;5.10;;;12.30;82.80;;;;;;2048944;29;20187;-65
2021/08/18 03:30:43;;;;;;;8.00;5.00;;;12.30;82.50;;;;;;2048895;28;20183;-65
2021/08/18 03:31:45;;;;;;;6.57;4.57;;;12.30;82.50;;;;;;2048619;28;20258;-66
2021/08/18 03:32:45;;;;;;;9.10;4.78;;;12.30;82.30;;;;;;2048590;28;20200;-66
2021/08/18 03:33:46;;;;;;;9.80;5.27;;;12.20;82.50;;;;;;2048586;28;20176;-66
2021/08/18 03:34:47;;;;;;;9.50;4.93;;;12.20;84.20;;;;;;2048704;28;20251;-65
2021/08/18 03:35:47;;;;;;;12.53;5.30;;;12.10;83.10;;;;;;2048601;28;20187;-66
2021/08/18 03:36:48;;;;;;;8.23;4.47;;;12.10;83.50;;;;;;2048690;28;20189;-65
2021/08/18 03:37:49;;;;;;;12.30;5.43;;;12.10;83.40;;;;;;2048477;28;20251;-64
2021/08/18 03:38:50;;;;;;;13.43;5.40;;;12.10;83.70;;;;;;2048733;28;20230;-65
2021/08/18 03:39:50;;;;;;;8.27;4.73;;;12.00;83.60;;;;;;2048584;28;20175;-66
2021/08/18 03:40:53;;;;;;;12.00;4.97;;;12.00;83.80;;;;;;2048638;28;20768;-66
2021/08/18 03:41:53;;;;;;;10.35;5.50;;;12.10;83.60;;;;;;2048504;28;20195;-67
2021/08/18 03:42:54;;;;;;;10.10;6.33;;;12.00;83.50;;;;;;2048466;29;20238;-66
2021/08/18 03:43:55;;;;;;;7.33;4.67;;;12.00;83.20;;;;;;2048593;28;20172;-66
2021/08/18 03:44:55;;;;;;;8.63;4.47;;;12.00;83.50;;;;;;2048724;28;20238;-67
2021/08/18 03:45:56;;;;;;;7.57;4.53;;;12.00;83.90;;;;;;2048621;28;20186;-65
2021/08/18 03:46:57;;;;;;;12.17;5.30;;;12.00;84.10;;;;;;2048595;28;20191;-65
2021/08/18 03:47:58;;;;;;;9.23;5.13;;;11.90;84.30;;;;;;2048680;29;20424;-67
2021/08/18 03:49:00;;;;;;;10.77;4.80;;;11.90;84.50;;;;;;2048759;29;20631;-66
2021/08/18 03:50:00;;;;;;;7.25;4.50;;;11.90;84.20;;;;;;2048599;28;20194;-65
2021/08/18 03:51:01;;;;;;;6.20;4.07;;;12.00;84.20;;;;;;2048569;28;20748;-66
2021/08/18 03:52:02;;;;;;;18.97;6.43;;;12.00;83.80;;;;;;2048600;28;20171;-66
2021/08/18 03:53:03;;;;;;;13.52;4.97;;;12.00;83.80;;;;;;2048580;28;20199;-64
2021/08/18 03:54:04;;;;;;;7.57;4.03;;;12.00;83.90;;;;;;2048557;28;20219;-66
2021/08/18 03:55:05;;;;;;;11.20;5.57;;;12.00;83.90;;;;;;2048711;28;20184;-66
2021/08/18 03:56:06;;;;;;;12.95;4.80;;;12.00;83.70;;;;;;2048466;28;20640;-66
2021/08/18 03:57:07;;;;;;;10.07;4.63;;;12.00;83.60;;;;;;2048512;28;20210;-66
2021/08/18 03:58:07;;;;;;;15.50;5.40;;;12.00;83.70;;;;;;2048502;29;20559;-66
2021/08/18 03:59:08;;;;;;;13.47;5.20;;;11.90;83.70;;;;;;2048552;29;20184;-67
2021/08/18 04:00:10;;;;;;;9.77;4.80;;;11.90;84.20;;;;;;2048495;29;20188;-64
2021/08/18 04:01:10;;;;;;;8.05;4.50;;;11.90;84.30;;;;;;2048692;28;20207;-64
2021/08/18 04:02:11;;;;;;;5.90;4.20;;;11.90;84.30;;;;;;2048658;28;20651;-65
2021/08/18 04:03:12;;;;;;;12.43;5.17;;;11.90;84.30;;;;;;2048498;28;20576;-67
2021/08/18 04:04:12;;;;;;;9.30;4.33;;;11.90;84.30;;;;;;2048475;29;20180;-67
2021/08/18 04:05:14;;;;;;;13.27;4.90;;;12.00;83.90;;;;;;2048565;29;20636;-66
2021/08/18 04:06:14;;;;;;;12.25;4.70;;;12.10;83.70;;;;;;2048558;28;20206;-66
2021/08/18 04:07:15;;;;;;;8.77;4.93;;;12.10;83.50;;;;;;2048342;29;20188;-66
2021/08/18 04:08:16;;;;;;;9.60;4.70;;;12.10;83.80;;;;;;2048540;28;20224;-66
2021/08/18 04:09:16;;;;;;;9.70;4.80;;;12.00;83.50;;;;;;2048439;28;20187;-66
2021/08/18 04:10:17;;;;;;;9.53;5.10;;;12.10;83.50;;;;;;2048512;29;20176;-66
2021/08/18 04:11:18;;;;;;;9.00;5.60;;;12.10;83.80;;;;;;2048323;29;20184;-66
2021/08/18 04:12:18;;;;;;;9.90;5.53;;;12.00;83.40;;;;;;2047931;29;20180;-66
2021/08/18 04:13:19;;;;;;;10.57;4.67;;;12.10;83.80;;;;;;2048612;28;20200;-66
2021/08/18 04:14:20;;;;;;;7.80;5.30;;;12.10;83.90;;;;;;2050133;28;20207;-67
2021/08/18 04:15:26;;;;;;;6.47;4.43;;;12.10;83.10;;;;;;2050100;28;20677;-65
2021/08/18 04:16:27;;;;;;;7.30;5.03;;;12.20;83.10;;;;;;2050141;28;20619;-66
2021/08/18 04:17:28;;;;;;;5.87;3.93;;;12.20;83.00;;;;;;2049823;29;20180;-64
2021/08/18 04:18:28;;;;;;;7.53;4.90;;;12.20;82.90;;;;;;2050047;28;20175;-65
2021/08/18 04:19:29;;;;;;;8.13;4.50;;;12.20;83.00;;;;;;2049307;29;20179;-66
2021/08/18 04:20:30;;;;;;;10.57;5.27;;;12.20;82.60;;;;;;2049498;29;20283;-67
2021/08/18 04:21:31;;;;;;;9.53;4.47;;;12.20;84.30;;;;;;2050073;28;20187;-64
2021/08/18 04:22:31;;;;;;;8.37;4.47;;;12.10;83.30;;;;;;2049984;28;20258;-66
2021/08/18 04:23:32;;;;;;;11.77;5.10;;;12.10;84.50;;;;;;2049890;29;20183;-66
2021/08/18 04:24:34;;;;;;;6.53;4.40;;;12.10;83.40;;;;;;2050040;28;20176;-65
2021/08/18 04:25:34;;;;;;;8.85;4.40;;;12.10;83.20;;;;;;2049292;29;20268;-65
2021/08/18 04:26:35;;;;;;;6.87;4.47;;;12.20;83.30;;;;;;2049417;29;20220;-66
2021/08/18 04:27:36;;;;;;;6.67;4.00;;;12.10;82.80;;;;;;2049819;29;20651;-66
2021/08/18 04:28:37;;;;;;;7.03;4.07;;;12.20;83.40;;;;;;2049408;29;20192;-65
2021/08/18 04:29:38;;;;;;;7.87;5.00;;;12.20;83.40;;;;;;2049271;29;20695;-66
2021/08/18 04:30:38;;;;;;;10.83;4.97;;;12.20;83.40;;;;;;2050463;28;20188;-66
2021/08/18 04:31:39;;;;;;;9.97;6.00;;;12.30;83.00;;;;;;2051885;28;20211;-64
2021/08/18 04:32:40;;;;;;;8.87;4.30;;;12.30;83.40;;;;;;2049944;28;20182;-65
2021/08/18 04:33:41;;;;;;;10.10;5.60;;;12.30;82.20;;;;;;2049926;28;20275;-66
2021/08/18 04:34:41;;;;;;;10.63;5.33;;;12.30;82.50;;;;;;2049937;28;20776;-66
2021/08/18 04:35:43;;;;;;;8.80;4.73;;;12.20;82.30;;;;;;2049896;28;20192;-66
2021/08/18 04:36:43;;;;;;;12.85;4.40;;;12.30;82.30;;;;;;2049434;28;20191;-66
2021/08/18 04:37:45;;;;;;;14.00;4.37;;;12.40;82.20;;;;;;2049127;29;20305;-66
2021/08/18 04:38:46;;;;;;;8.38;5.13;;;12.40;81.90;;;;;;2050021;28;20180;-66
2021/08/18 04:39:46;;;;;;;13.13;5.63;;;12.40;81.80;;;;;;2049804;28;20311;-65
2021/08/18 04:40:47;;;;;;;8.50;3.70;;;12.40;81.80;;;;;;2049910;28;20714;-65
2021/08/18 04:41:48;;;;;;;8.83;4.67;;;12.40;81.80;;;;;;2049748;28;20246;-66
2021/08/18 04:42:50;;;;;;;10.13;5.13;;;12.40;81.80;;;;;;2049849;28;20224;-65
2021/08/18 04:43:51;;;;;;;11.55;5.35;;;12.50;82.40;;;;;;2049865;28;20184;-66
2021/08/18 04:44:51;;;;;;;6.33;3.93;;;12.40;82.80;;;;;;2049957;28;20180;-66
2021/08/18 04:45:52;;;;;;;9.27;5.40;;;12.30;82.80;;;;;;2049747;28;20171;-66
2021/08/18 04:46:53;;;;;;;7.43;4.50;;;12.30;83.20;;;;;;2049903;28;20770;-65
2021/08/18 04:47:54;;;;;;;17.80;4.47;;;12.30;83.60;;;;;;2049853;28;20424;-67
2021/08/18 04:48:54;;;;;;;11.50;4.63;;;12.20;83.00;;;;;;2049866;28;20183;-66
2021/08/18 04:49:55;;;;;;;10.73;4.73;;;12.20;83.00;;;;;;2049824;28;20186;-66
2021/08/18 04:50:56;;;;;;;11.40;5.40;;;12.20;82.90;;;;;;2049766;28;20203;-65
2021/08/18 04:51:56;;;;;;;9.33;4.50;;;12.30;83.40;;;;;;2049748;28;20231;-67
2021/08/18 04:52:57;;;;;;;6.03;3.23;;;12.30;83.40;;;;;;2049772;28;20192;-65
2021/08/18 04:53:58;;;;;;;9.25;4.90;;;12.30;83.10;;;;;;2045503;28;20218;-65
2021/08/18 04:54:59;;;;;;;8.83;4.30;;;12.40;83.10;;;;;;2041619;29;20325;-65
2021/08/18 04:56:00;;;;;;;8.73;4.37;;;12.40;83.00;;;;;;2041723;29;20260;-64
2021/08/18 04:57:00;;;;;;;6.13;4.07;;;12.40;83.00;;;;;;2041352;29;20196;-66
2021/08/18 04:58:01;;;;;;;5.83;3.83;;;12.30;83.00;;;;;;2041770;29;20553;-65
2021/08/18 04:59:02;;;;;;;7.37;4.93;;;12.30;83.30;;;;;;2041687;29;20178;-65
2021/08/18 05:00:04;;;;;;;7.70;4.60;;;12.30;83.50;;;;;;2041683;29;20181;-66
2021/08/18 05:01:05;;;;;;;7.47;4.78;;;12.40;83.50;;;;;;2041591;29;20604;-66
2021/08/18 05:02:06;;;;;;;9.43;4.33;;;12.40;83.00;;;;;;2041769;29;20196;-65
2021/08/18 05:03:14;;;;;;;9.00;3.50;;;12.50;82.70;;;;;;2040969;29;20201;-66
2021/08/18 05:04:15;;;;;;;9.57;4.75;;;12.40;82.60;;;;;;2041355;29;20191;-66
2021/08/18 05:05:15;;;;;;;10.57;4.70;;;12.40;82.70;;;;;;2041596;29;20184;-65
2021/08/18 05:06:16;;;;;;;6.87;3.83;;;12.50;82.70;;;;;;2041815;29;20266;-65
2021/08/18 05:07:16;;;;;;;5.80;4.10;;;12.50;82.60;;;;;;2041300;29;20216;-65
2021/08/18 05:08:18;;;;;;;9.53;5.10;;;12.50;82.50;;;;;;2041799;29;20267;-66
2021/08/18 05:09:18;;;;;;;5.65;3.90;;;12.50;82.60;;;;;;2044646;29;20226;-67
2021/08/18 05:10:19;;;;;;;7.13;4.37;;;12.60;83.30;;;;;;2047563;28;20187;-66
2021/08/18 05:11:20;;;;;;;10.03;4.03;;;12.60;81.90;;;;;;2041337;29;20188;-66
2021/08/18 05:12:21;;;;;;;7.13;4.13;;;12.60;82.60;;;;;;2041861;29;20183;-67
2021/08/18 05:13:21;;;;;;;7.10;3.73;;;12.60;82.50;;;;;;2041631;29;20219;-66
2021/08/18 05:14:22;;;;;;;16.97;4.33;;;12.60;82.70;;;;;;2041881;29;20181;-66
2021/08/18 05:15:23;;;;;;;7.33;4.20;;;12.50;82.60;;;;;;2041591;29;20181;-66
2021/08/18 05:16:24;;;;;;;5.78;3.60;;;12.50;82.60;;;;;;2041879;29;20179;-64
2021/08/18 05:17:25;;;;;;;9.00;4.30;;;12.60;83.20;;;;;;2041299;29;20267;-66